createdAt,value
2019-05-22T00:00:46.111Z,19.33
2019-05-22T00:03:19.019Z,21.27
2019-05-22T00:05:50.097Z,21.80
2019-05-22T00:08:20.512Z,22.80
2019-05-22T00:10:50.132Z,24.20
2019-05-22T00:13:22.855Z,23.23
2019-05-22T00:15:53.791Z,24.23
2019-05-22T00:18:24.336Z,25.90
2019-05-22T00:20:54.031Z,24.90
2019-05-22T00:23:23.306Z,25.40
2019-05-22T00:25:54.070Z,20.33
2019-05-22T00:28:25.514Z,26.13
2019-05-22T00:30:55.515Z,28.50
2019-05-22T00:33:25.176Z,25.20
2019-05-22T00:35:56.118Z,27.27
2019-05-22T00:38:26.506Z,28.63
2019-05-22T00:40:57.999Z,30.47
2019-05-22T00:43:37.625Z,30.13
2019-05-22T00:46:09.754Z,29.40
2019-05-22T00:48:41.764Z,29.83
2019-05-22T00:51:29.525Z,30.63
2019-05-22T00:54:09.764Z,25.83
2019-05-22T00:57:03.935Z,24.67
2019-05-22T00:59:35.160Z,26.23
2019-05-22T01:02:08.036Z,25.80
2019-05-22T01:04:40.954Z,24.80
2019-05-22T01:07:17.418Z,26.10
2019-05-22T01:09:48.372Z,23.73
2019-05-22T01:12:27.063Z,26.10
2019-05-22T01:15:00.193Z,25.63
2019-05-22T01:17:33.726Z,23.57
2019-05-22T01:20:05.088Z,24.53
2019-05-22T01:22:36.261Z,25.10
2019-05-22T01:25:06.495Z,19.70
2019-05-22T01:27:36.503Z,22.70
2019-05-22T01:30:10.417Z,19.10
2019-05-22T01:32:53.634Z,23.83
2019-05-22T01:35:29.172Z,20.23
2019-05-22T01:37:59.733Z,24.93
2019-05-22T01:40:41.406Z,22.73
2019-05-22T01:43:14.101Z,24.57
2019-05-22T01:45:52.476Z,25.37
2019-05-22T01:48:25.706Z,25.30
2019-05-22T01:50:57.265Z,27.10
2019-05-22T01:53:32.738Z,23.53
2019-05-22T01:56:06.537Z,25.93
2019-05-22T01:58:37.390Z,24.90
2019-05-22T02:01:12.793Z,27.17
2019-05-22T02:03:42.921Z,27.57
2019-05-22T02:06:12.236Z,26.83
2019-05-22T02:08:45.240Z,25.83
2019-05-22T02:11:18.542Z,26.03
2019-05-22T02:13:54.261Z,27.93
2019-05-22T02:16:24.889Z,26.00
2019-05-22T02:18:54.025Z,24.43
2019-05-22T02:21:25.152Z,25.33
2019-05-22T02:23:54.556Z,28.93
2019-05-22T02:26:24.259Z,27.97
2019-05-22T02:28:54.830Z,25.13
2019-05-22T02:31:28.576Z,22.50
2019-05-22T02:34:01.417Z,24.37
2019-05-22T02:36:31.040Z,28.07
2019-05-22T02:39:01.105Z,22.60
2019-05-22T02:41:39.644Z,19.37
2019-05-22T02:44:08.833Z,22.47
2019-05-22T02:46:37.970Z,23.40
2019-05-22T02:49:10.429Z,22.63
2019-05-22T02:51:40.095Z,22.70
2019-05-22T02:54:10.133Z,20.83
2019-05-22T02:56:39.576Z,23.87
2019-05-22T02:59:09.925Z,22.40
2019-05-22T03:01:40.490Z,20.47
2019-05-22T03:04:11.747Z,23.40
2019-05-22T03:06:41.166Z,18.10
2019-05-22T03:09:18.448Z,22.50
2019-05-22T03:11:57.537Z,22.93
2019-05-22T03:14:28.394Z,21.70
2019-05-22T03:17:00.507Z,22.70
2019-05-22T03:19:36.476Z,21.83
2019-05-22T03:22:28.342Z,23.43
2019-05-22T03:25:00.027Z,21.43
2019-05-22T03:27:38.734Z,21.60
2019-05-22T03:30:16.222Z,22.23
2019-05-22T03:32:45.417Z,23.33
2019-05-22T03:35:15.541Z,21.93
2019-05-22T03:37:45.177Z,20.10
2019-05-22T03:40:15.733Z,20.57
2019-05-22T03:42:44.821Z,20.50
2019-05-22T03:45:14.500Z,20.40
2019-05-22T03:47:43.832Z,19.27
2019-05-22T03:50:13.795Z,20.50
2019-05-22T03:52:42.976Z,19.17
2019-05-22T03:55:12.842Z,18.03
2019-05-22T03:57:42.486Z,19.13
2019-05-22T04:00:16.025Z,16.57
2019-05-22T04:02:46.275Z,19.27
2019-05-22T04:05:16.736Z,16.40
2019-05-22T04:07:48.189Z,17.03
2019-05-22T04:10:18.896Z,17.80
2019-05-22T04:12:48.466Z,17.43
2019-05-22T04:15:19.532Z,17.63
2019-05-22T04:17:48.939Z,17.87
2019-05-22T04:20:20.154Z,14.07
2019-05-22T04:22:55.961Z,17.57
2019-05-22T04:25:25.254Z,14.57
2019-05-22T04:27:54.313Z,16.03
2019-05-22T04:30:23.237Z,15.00
2019-05-22T04:32:52.490Z,13.90
2019-05-22T04:35:22.583Z,15.63
2019-05-22T04:37:52.625Z,13.10
2019-05-22T04:40:56.783Z,15.20
2019-05-22T04:43:28.500Z,15.77
2019-05-22T04:45:59.301Z,16.63
2019-05-22T04:48:31.414Z,16.47
2019-05-22T04:51:21.438Z,15.10
2019-05-22T04:53:50.545Z,14.27
2019-05-22T04:56:19.845Z,15.27
2019-05-22T04:58:49.098Z,16.03
2019-05-22T05:01:20.210Z,15.70
2019-05-22T05:03:49.811Z,16.33
2019-05-22T05:06:21.252Z,17.20
2019-05-22T05:08:50.654Z,17.60
2019-05-22T05:11:20.616Z,18.07
2019-05-22T05:13:52.973Z,17.27
2019-05-22T05:16:22.285Z,18.07
2019-05-22T05:18:51.475Z,16.93
2019-05-22T05:21:20.426Z,17.43
2019-05-22T05:23:49.410Z,17.33
2019-05-22T05:26:19.022Z,14.43
2019-05-22T05:28:48.425Z,14.70
2019-05-22T05:31:17.588Z,11.23
2019-05-22T05:34:00.903Z,14.43
2019-05-22T05:36:30.282Z,19.05
2019-05-22T05:39:01.213Z,16.50
2019-05-22T05:41:31.078Z,15.30
2019-05-22T05:44:00.553Z,14.87
2019-05-22T05:46:29.456Z,17.17
2019-05-22T05:48:59.638Z,15.97
2019-05-22T05:51:40.428Z,13.70
2019-05-22T05:54:16.149Z,14.00
2019-05-22T05:56:48.474Z,13.77
2019-05-22T05:59:18.729Z,15.53
2019-05-22T06:01:51.195Z,13.70
2019-05-22T06:04:34.780Z,13.70
2019-05-22T06:07:22.194Z,11.77
2019-05-22T06:10:22.238Z,10.93
2019-05-22T06:12:51.519Z,13.67
2019-05-22T06:15:22.162Z,12.60
2019-05-22T06:18:31.801Z,10.50
2019-05-22T06:21:04.127Z,11.47
2019-05-22T06:24:10.409Z,12.63
2019-05-22T06:27:08.184Z,13.67
2019-05-22T06:29:56.131Z,8.83
2019-05-22T06:32:52.348Z,11.87
2019-05-22T06:35:21.764Z,11.30
2019-05-22T06:38:29.418Z,12.40
2019-05-22T06:40:58.717Z,12.50
2019-05-22T06:44:30.875Z,9.83
2019-05-22T06:47:01.042Z,10.23
2019-05-22T06:49:54.199Z,8.53
2019-05-22T06:52:23.564Z,12.13
2019-05-22T06:54:54.593Z,9.80
2019-05-22T06:57:33.125Z,10.97
2019-05-22T07:00:21.726Z,10.73
2019-05-22T07:02:55.933Z,11.23
2019-05-22T07:05:25.303Z,9.40
2019-05-22T07:07:55.184Z,9.80
2019-05-22T07:10:24.797Z,11.27
2019-05-22T07:12:54.375Z,9.53
2019-05-22T07:15:39.498Z,9.87
2019-05-22T07:18:12.454Z,7.77
2019-05-22T07:20:41.964Z,9.40
2019-05-22T07:23:16.829Z,9.60
2019-05-22T07:25:47.136Z,6.43
2019-05-22T07:28:17.912Z,8.97
2019-05-22T07:30:47.930Z,9.27
2019-05-22T07:33:18.022Z,8.97
2019-05-22T07:36:07.915Z,9.00
2019-05-22T07:38:19.262Z,8.20
2019-05-22T07:40:50.486Z,7.87
2019-05-22T07:43:21.975Z,8.23
2019-05-22T07:45:52.704Z,7.40
2019-05-22T07:48:25.759Z,7.43
2019-05-22T07:50:56.914Z,8.80
2019-05-22T07:53:27.199Z,8.17
2019-05-22T07:55:57.728Z,8.43
2019-05-22T07:58:29.545Z,7.57
2019-05-22T08:01:02.205Z,8.47
2019-05-22T08:03:32.519Z,8.07
2019-05-22T08:06:01.840Z,8.93
2019-05-22T08:08:33.167Z,8.30
2019-05-22T08:11:03.092Z,8.17
2019-05-22T08:13:33.006Z,9.10
2019-05-22T08:16:02.424Z,7.23
2019-05-22T08:18:34.890Z,7.93
2019-05-22T08:21:04.467Z,7.63
2019-05-22T08:23:34.360Z,6.67
2019-05-22T08:26:13.424Z,7.80
2019-05-22T08:28:43.199Z,7.33
2019-05-22T08:31:13.136Z,7.80
2019-05-22T08:33:42.646Z,7.07
2019-05-22T08:36:11.936Z,6.93
2019-05-22T08:38:42.449Z,7.00
2019-05-22T08:41:13.639Z,7.73
2019-05-22T08:44:11.234Z,7.63
2019-05-22T08:46:14.168Z,5.80
2019-05-22T08:48:48.215Z,6.07
2019-05-22T08:51:15.910Z,7.23
2019-05-22T08:53:48.167Z,7.17
2019-05-22T08:56:16.559Z,8.28
2019-05-22T08:58:46.230Z,8.30
2019-05-22T09:01:15.765Z,7.73
2019-05-22T09:03:46.554Z,7.10
2019-05-22T09:06:15.703Z,6.97
2019-05-22T09:08:44.687Z,6.57
2019-05-22T09:11:13.602Z,7.57
2019-05-22T09:13:42.988Z,6.00
2019-05-22T09:16:14.526Z,6.37
2019-05-22T09:18:43.659Z,8.57
2019-05-22T09:21:14.199Z,7.10
2019-05-22T09:23:44.559Z,6.73
2019-05-22T09:26:15.278Z,8.03
2019-05-22T09:28:44.344Z,7.50
2019-05-22T09:31:13.533Z,7.97
2019-05-22T09:33:43.080Z,8.97
2019-05-22T09:36:12.007Z,8.13
2019-05-22T09:38:41.081Z,8.13
2019-05-22T09:41:10.359Z,6.43
2019-05-22T09:43:39.485Z,9.00
2019-05-22T09:46:09.250Z,8.30
2019-05-22T09:48:38.942Z,6.37
2019-05-22T09:51:07.998Z,8.30
2019-05-22T09:53:38.555Z,8.00
2019-05-22T09:56:07.760Z,6.83
2019-05-22T09:58:36.974Z,7.63
2019-05-22T10:01:11.554Z,8.00
2019-05-22T10:03:38.846Z,7.50
2019-05-22T10:06:08.133Z,6.20
2019-05-22T10:08:37.512Z,8.33
2019-05-22T10:11:07.158Z,9.40
2019-05-22T10:13:36.152Z,9.33
2019-05-22T10:16:05.367Z,9.20
2019-05-22T10:18:34.669Z,9.83
2019-05-22T10:21:04.078Z,8.20
2019-05-22T10:23:33.174Z,10.07
2019-05-22T10:26:02.717Z,8.90
2019-05-22T10:28:32.177Z,10.17
2019-05-22T10:31:02.089Z,9.77
2019-05-22T10:33:31.816Z,9.53
2019-05-22T10:36:01.365Z,8.33
2019-05-22T10:38:30.347Z,8.30
2019-05-22T10:40:59.883Z,6.90
2019-05-22T10:43:29.697Z,6.63
2019-05-22T10:45:59.266Z,7.37
2019-05-22T10:48:28.347Z,6.13
2019-05-22T10:50:57.320Z,7.93
2019-05-22T10:53:33.531Z,8.90
2019-05-22T10:55:57.349Z,8.30
2019-05-22T10:58:26.559Z,6.57
2019-05-22T11:00:55.798Z,7.63
2019-05-22T11:03:25.439Z,6.17
2019-05-22T11:06:06.264Z,5.90
2019-05-22T11:08:30.264Z,6.87
2019-05-22T11:10:56.977Z,7.40
2019-05-22T11:13:26.113Z,7.20
2019-05-22T11:15:56.022Z,7.37
2019-05-22T11:18:25.089Z,7.70
2019-05-22T11:20:53.943Z,7.63
2019-05-22T11:23:26.824Z,7.93
2019-05-22T11:25:55.991Z,6.27
2019-05-22T11:28:26.336Z,8.37
2019-05-22T11:30:56.432Z,7.97
2019-05-22T11:33:25.938Z,7.27
2019-05-22T11:35:55.706Z,7.67
2019-05-22T11:38:25.327Z,7.17
2019-05-22T11:40:54.618Z,8.00
2019-05-22T11:43:23.943Z,8.10
2019-05-22T11:45:53.491Z,9.60
2019-05-22T11:48:23.313Z,8.23
2019-05-22T11:50:52.903Z,7.47
2019-05-22T11:53:22.074Z,7.93
2019-05-22T11:55:52.192Z,8.77
2019-05-22T11:58:21.579Z,8.87
2019-05-22T12:00:51.696Z,7.97
2019-05-22T12:03:22.604Z,9.53
2019-05-22T12:05:51.818Z,8.63
2019-05-22T12:08:21.224Z,8.13
2019-05-22T12:10:51.918Z,8.20
2019-05-22T12:13:21.563Z,9.47
2019-05-22T12:15:51.304Z,8.37
2019-05-22T12:18:20.356Z,10.43
2019-05-22T12:20:49.322Z,12.40
2019-05-22T12:23:18.821Z,9.43
2019-05-22T12:25:47.896Z,10.30
2019-05-22T12:28:17.820Z,11.77
2019-05-22T12:30:47.922Z,11.43
2019-05-22T12:33:17.361Z,11.67
2019-05-22T12:35:46.810Z,12.70
2019-05-22T12:38:16.426Z,12.23
2019-05-22T12:40:46.531Z,11.90
2019-05-22T12:43:15.963Z,11.53
2019-05-22T12:45:45.220Z,10.80
2019-05-22T12:48:15.896Z,11.20
2019-05-22T12:50:45.620Z,10.77
2019-05-22T12:53:17.453Z,13.27
2019-05-22T12:55:46.902Z,13.20
2019-05-22T12:58:16.653Z,12.93
2019-05-22T13:00:46.351Z,11.33
2019-05-22T13:03:15.542Z,13.90
2019-05-22T13:05:45.388Z,13.93
2019-05-22T13:08:15.242Z,13.07
2019-05-22T13:10:45.117Z,16.37
2019-05-22T13:13:14.678Z,14.07
2019-05-22T13:15:44.376Z,13.77
2019-05-22T13:18:16.193Z,15.73
2019-05-22T13:20:47.847Z,14.30
2019-05-22T13:23:17.529Z,13.17
2019-05-22T13:25:47.284Z,12.60
2019-05-22T13:28:18.352Z,15.07
2019-05-22T13:30:51.106Z,14.73
2019-05-22T13:33:24.249Z,16.77
2019-05-22T13:35:53.998Z,15.27
2019-05-22T13:38:23.455Z,15.77
2019-05-22T13:40:53.994Z,9.60
2019-05-22T13:43:23.932Z,12.03
2019-05-22T13:45:53.487Z,9.90
2019-05-22T13:48:22.579Z,7.93
2019-05-22T13:50:52.104Z,9.57
2019-05-22T13:53:21.514Z,7.77
2019-05-22T13:55:50.540Z,9.30
2019-05-22T13:58:21.605Z,9.57
2019-05-22T14:00:51.095Z,6.87
2019-05-22T14:03:20.766Z,9.17
2019-05-22T14:05:51.318Z,8.33
2019-05-22T14:08:21.193Z,8.50
2019-05-22T14:10:51.421Z,8.70
2019-05-22T14:13:21.879Z,8.27
2019-05-22T14:15:56.556Z,8.00
2019-05-22T14:18:21.737Z,9.30
2019-05-22T14:20:51.006Z,8.43
2019-05-22T14:23:20.125Z,8.83
2019-05-22T14:25:49.992Z,9.13
2019-05-22T14:28:19.234Z,9.10
2019-05-22T14:30:49.188Z,9.13
2019-05-22T14:33:18.429Z,8.10
2019-05-22T14:35:49.560Z,10.10
2019-05-22T14:38:19.757Z,9.83
2019-05-22T14:40:48.883Z,9.47
2019-05-22T14:43:17.917Z,9.40
2019-05-22T14:45:47.231Z,9.07
2019-05-22T14:48:16.952Z,10.43
2019-05-22T14:50:45.873Z,8.57
2019-05-22T14:53:15.565Z,7.03
2019-05-22T14:55:45.177Z,8.27
2019-05-22T14:58:16.202Z,7.83
2019-05-22T15:00:45.700Z,8.27
2019-05-22T15:03:14.835Z,8.07
2019-05-22T15:05:44.551Z,10.63
2019-05-22T15:08:13.637Z,9.80
2019-05-22T15:10:42.974Z,10.77
2019-05-22T15:13:12.157Z,9.93
2019-05-22T15:15:41.387Z,10.10
2019-05-22T15:18:11.369Z,10.03
2019-05-22T15:20:46.938Z,11.17
2019-05-22T15:23:16.761Z,9.73
2019-05-22T15:25:46.246Z,9.13
2019-05-22T15:28:15.262Z,9.97
2019-05-22T15:30:44.444Z,8.80
2019-05-22T15:33:13.395Z,10.10
2019-05-22T15:35:43.052Z,10.53
2019-05-22T15:38:12.588Z,9.40
2019-05-22T15:40:42.149Z,10.30
2019-05-22T15:43:11.969Z,10.03
2019-05-22T15:45:41.877Z,10.03
2019-05-22T15:48:17.461Z,8.90
2019-05-22T15:50:47.939Z,10.10
2019-05-22T15:53:16.876Z,9.30
2019-05-22T15:55:48.526Z,8.67
2019-05-22T15:58:18.033Z,9.30
2019-05-22T16:00:47.354Z,7.77
2019-05-22T16:03:21.008Z,9.10
2019-05-22T16:05:52.220Z,9.30
2019-05-22T16:08:24.709Z,9.47
2019-05-22T16:10:59.686Z,9.03
2019-05-22T16:13:28.939Z,7.77
2019-05-22T16:15:59.780Z,9.43
2019-05-22T16:18:31.602Z,8.37
2019-05-22T16:21:02.489Z,8.63
2019-05-22T16:23:33.909Z,9.27
2019-05-22T16:26:04.784Z,8.60
2019-05-22T16:28:36.403Z,7.87
2019-05-22T16:31:08.242Z,9.40
2019-05-22T16:33:38.816Z,8.93
2019-05-22T16:36:09.081Z,8.97
2019-05-22T16:38:39.185Z,8.37
2019-05-22T16:41:08.630Z,7.57
2019-05-22T16:43:49.027Z,7.30
2019-05-22T16:46:12.961Z,7.87
2019-05-22T16:48:43.667Z,6.13
2019-05-22T16:51:14.816Z,7.73
2019-05-22T16:53:49.268Z,6.77
2019-05-22T16:56:19.890Z,7.37
2019-05-22T16:58:49.940Z,7.83
2019-05-22T17:01:20.645Z,8.17
2019-05-22T17:03:52.923Z,8.37
2019-05-22T17:06:23.063Z,7.30
2019-05-22T17:08:53.274Z,7.10
2019-05-22T17:11:22.494Z,7.13
2019-05-22T17:13:53.918Z,7.67
2019-05-22T17:16:23.504Z,7.30
2019-05-22T17:18:52.695Z,6.60
2019-05-22T17:21:21.695Z,7.83
2019-05-22T17:23:51.261Z,7.07
2019-05-22T17:26:20.665Z,8.17
2019-05-22T17:28:49.825Z,7.37
2019-05-22T17:31:19.091Z,7.50
2019-05-22T17:33:48.336Z,10.47
2019-05-22T17:36:18.953Z,7.87
2019-05-22T17:38:47.901Z,6.47
2019-05-22T17:41:19.013Z,8.20
2019-05-22T17:43:50.629Z,7.80
2019-05-22T17:46:20.193Z,7.13
2019-05-22T17:48:49.755Z,6.90
2019-05-22T17:51:19.904Z,7.47
2019-05-22T17:53:49.569Z,7.07
2019-05-22T17:56:18.961Z,7.63
2019-05-22T17:58:49.261Z,7.07
2019-05-22T18:01:19.197Z,6.00
2019-05-22T18:03:48.685Z,7.00
2019-05-22T18:06:18.261Z,6.97
2019-05-22T18:08:47.860Z,7.33
2019-05-22T18:11:16.849Z,6.90
2019-05-22T18:14:00.831Z,7.27
2019-05-22T18:16:32.466Z,6.57
2019-05-22T18:19:01.976Z,6.80
2019-05-22T18:21:32.208Z,6.97
2019-05-22T18:24:01.107Z,6.90
2019-05-22T18:26:30.564Z,7.13
2019-05-22T18:28:59.544Z,7.40
2019-05-22T18:31:29.154Z,6.10
2019-05-22T18:33:58.195Z,6.83
2019-05-22T18:36:27.258Z,7.00
2019-05-22T18:38:56.251Z,7.00
2019-05-22T18:41:25.174Z,7.40
2019-05-22T18:43:56.139Z,7.23
2019-05-22T18:46:25.074Z,8.03
2019-05-22T18:48:54.066Z,7.40
2019-05-22T18:51:23.530Z,7.03
2019-05-22T18:53:52.610Z,7.50
2019-05-22T18:56:21.723Z,6.97
2019-05-22T18:58:50.710Z,7.10
2019-05-22T19:01:20.125Z,7.53
2019-05-22T19:03:49.089Z,8.53
2019-05-22T19:06:29.704Z,7.77
2019-05-22T19:08:50.826Z,8.10
2019-05-22T19:11:20.149Z,7.10
2019-05-22T19:13:49.042Z,8.27
2019-05-22T19:16:18.544Z,7.53
2019-05-22T19:18:47.354Z,7.50
2019-05-22T19:21:16.177Z,7.43
2019-05-22T19:23:45.339Z,6.77
2019-05-22T19:26:14.407Z,7.43
2019-05-22T19:28:45.882Z,6.93
2019-05-22T19:31:15.055Z,7.17
2019-05-22T19:33:44.022Z,7.33
2019-05-22T19:36:13.294Z,6.63
2019-05-22T19:38:42.281Z,7.63
2019-05-22T19:41:11.875Z,7.23
2019-05-22T19:43:40.828Z,6.90
2019-05-22T19:46:09.907Z,6.40
2019-05-22T19:48:39.372Z,6.60
2019-05-22T19:51:08.592Z,6.90
2019-05-22T19:53:37.448Z,6.67
2019-05-22T19:56:06.569Z,6.63
2019-05-22T19:58:38.585Z,6.57
2019-05-22T20:01:08.213Z,6.70
2019-05-22T20:03:37.515Z,6.13
2019-05-22T20:06:07.061Z,6.43
2019-05-22T20:08:36.984Z,5.93
2019-05-22T20:11:06.107Z,6.47
2019-05-22T20:13:35.420Z,6.33
2019-05-22T20:16:04.684Z,6.73
2019-05-22T20:18:33.964Z,6.73
2019-05-22T20:21:03.572Z,6.67
2019-05-22T20:23:36.543Z,6.43
2019-05-22T20:26:04.952Z,6.53
2019-05-22T20:28:34.274Z,6.30
2019-05-22T20:31:03.855Z,6.10
2019-05-22T20:33:32.930Z,6.60
2019-05-22T20:36:01.948Z,6.83
2019-05-22T20:38:31.109Z,6.80
2019-05-22T20:41:00.471Z,5.73
2019-05-22T20:43:40.044Z,6.33
2019-05-22T20:46:09.415Z,6.10
2019-05-22T20:48:38.714Z,6.30
2019-05-22T20:51:09.649Z,6.20
2019-05-22T20:53:53.086Z,6.10
2019-05-22T20:56:12.866Z,7.03
2019-05-22T20:58:42.411Z,6.53
2019-05-22T21:01:12.479Z,6.73
2019-05-22T21:03:43.863Z,6.13
2019-05-22T21:06:22.236Z,6.53
2019-05-22T21:08:52.587Z,6.03
2019-05-22T21:11:25.052Z,6.87
2019-05-22T21:13:54.581Z,6.67
2019-05-22T21:16:24.596Z,6.60
2019-05-22T21:18:55.761Z,6.70
2019-05-22T21:21:27.674Z,7.63
2019-05-22T21:24:10.510Z,7.83
2019-05-22T21:26:31.848Z,7.77
2019-05-22T21:29:01.506Z,6.93
2019-05-22T21:31:30.703Z,6.80
2019-05-22T21:33:59.976Z,6.93
2019-05-22T21:36:29.404Z,7.47
2019-05-22T21:38:58.444Z,8.37
2019-05-22T21:41:28.482Z,8.27
2019-05-22T21:43:57.944Z,8.10
2019-05-22T21:46:27.249Z,8.43
2019-05-22T21:48:59.277Z,8.17
2019-05-22T21:51:29.025Z,8.17
2019-05-22T21:53:58.305Z,8.33
2019-05-22T21:56:27.381Z,9.87
2019-05-22T21:58:57.556Z,10.03
2019-05-22T22:01:37.262Z,9.03
2019-05-22T22:04:21.101Z,8.73
2019-05-22T22:06:52.657Z,8.77
2019-05-22T22:09:23.117Z,8.50
2019-05-22T22:11:52.783Z,8.50
2019-05-22T22:14:24.650Z,9.23
2019-05-22T22:16:55.181Z,8.17
2019-05-22T22:19:25.419Z,8.77
2019-05-22T22:21:55.157Z,8.47
2019-05-22T22:24:24.449Z,8.43
2019-05-22T22:26:53.598Z,8.10
2019-05-22T22:29:23.032Z,7.60
2019-05-22T22:31:54.758Z,7.50
2019-05-22T22:34:38.762Z,7.80
2019-05-22T22:37:09.078Z,7.97
2019-05-22T22:39:41.314Z,8.90
2019-05-22T22:42:13.611Z,7.97
2019-05-22T22:44:44.356Z,7.40
2019-05-22T22:47:18.012Z,7.77
2019-05-22T22:49:48.140Z,7.90
2019-05-22T22:52:19.345Z,7.73
2019-05-22T22:54:48.541Z,8.40
2019-05-22T22:57:18.128Z,8.63
2019-05-22T22:59:47.121Z,8.50
2019-05-22T23:02:19.201Z,8.60
2019-05-22T23:04:49.400Z,8.63
2019-05-22T23:07:19.694Z,8.10
2019-05-22T23:09:49.203Z,8.93
2019-05-22T23:12:20.771Z,9.07
2019-05-22T23:14:54.906Z,8.27
2019-05-22T23:17:24.830Z,9.33
2019-05-22T23:19:53.993Z,8.63
2019-05-22T23:22:28.580Z,8.53
2019-05-22T23:25:00.231Z,8.33
2019-05-22T23:27:31.462Z,9.53
2019-05-22T23:30:01.156Z,9.13
2019-05-22T23:32:30.979Z,9.63
2019-05-22T23:35:00.751Z,8.93
2019-05-22T23:37:30.673Z,9.37
2019-05-22T23:39:59.975Z,9.53
2019-05-22T23:42:35.085Z,9.90
2019-05-22T23:45:07.529Z,9.43
2019-05-22T23:47:53.403Z,8.80
2019-05-22T23:50:23.180Z,8.77
2019-05-22T23:52:52.438Z,9.20
2019-05-22T23:55:21.322Z,8.87
2019-05-22T23:57:51.663Z,9.70
